SAWG/RGL METAR and TAF weather

Enter ICAO airport designator
Station Type Date Time Source
SAWG METAR 2019/06/17 14:00 UTC NOAA

SAWG 171400Z 25003KT CAVOK 04/00 Q1013


Station Type Date Time Source
SAWG Decoded METAR 2019/06/17 14:00 UTC NOAA

Rio Gallegos Aerodrome, Argentina (SAWG) 51-37S 069-17W 19M
Jun 17, 2019 - 10:00 AM EDT / 2019.06.17 1400 UTC
Wind: from the WSW (250 degrees) at 3 MPH (3 KT):0
Visibility: greater than 7 mile(s):0
Temperature: 39 F (4 C)
Dew Point: 32 F (0 C)
Relative Humidity: 75%
Pressure (altimeter): 29.91 in. Hg (1013 hPa)
ob: SAWG 171400Z 25003KT CAVOK 04/00 Q1013
cycle: 14

Station Type Date Time Source
SAWG TAF 2019/06/17 12:03 UTC NOAA

TAF SAWG 171100Z 1712/1812 VRB05KT CAVOK TX09/1718Z TNM02/1805Z
BECMG 1718/1720 32010KT
BECMG 1800/1802 25010KT

Example: see airport list